createdAt,value
2017-10-13T00:00:06.679Z,9.56
2017-10-13T00:01:07.290Z,9.50
2017-10-13T00:02:07.898Z,9.62
2017-10-13T00:03:08.513Z,9.64
2017-10-13T00:04:09.281Z,9.64
2017-10-13T00:05:09.890Z,9.64
2017-10-13T00:06:10.504Z,9.64
2017-10-13T00:07:11.118Z,9.59
2017-10-13T00:08:11.735Z,9.54
2017-10-13T00:09:12.523Z,9.56
2017-10-13T00:10:13.133Z,9.47
2017-10-13T00:11:13.744Z,9.47
2017-10-13T00:12:14.383Z,9.46
2017-10-13T00:13:14.998Z,9.41
2017-10-13T00:14:15.756Z,9.40
2017-10-13T00:15:16.379Z,9.40
2017-10-13T00:16:16.976Z,9.34
2017-10-13T00:17:17.587Z,9.28
2017-10-13T00:18:18.198Z,9.40
2017-10-13T00:19:18.957Z,9.36
2017-10-13T00:20:19.573Z,9.37
2017-10-13T00:21:20.180Z,9.39
2017-10-13T00:22:20.791Z,9.37
2017-10-13T00:23:21.402Z,9.37
2017-10-13T00:24:22.190Z,9.36
2017-10-13T00:25:22.800Z,9.37
2017-10-13T00:26:23.416Z,9.29
2017-10-13T00:27:24.026Z,9.26
2017-10-13T00:28:24.635Z,9.28
2017-10-13T00:29:25.394Z,9.28
2017-10-13T00:30:26.004Z,9.26
2017-10-13T00:31:26.614Z,9.34
2017-10-13T00:32:27.227Z,9.37
2017-10-13T00:33:27.838Z,9.25
2017-10-13T00:34:28.598Z,9.34
2017-10-13T00:35:29.209Z,9.37
2017-10-13T00:36:29.819Z,9.40
2017-10-13T00:37:30.428Z,9.37
2017-10-13T00:38:31.040Z,9.36
2017-10-13T00:39:31.802Z,9.37
2017-10-13T00:40:32.411Z,9.34
2017-10-13T00:41:33.022Z,9.25
2017-10-13T00:42:33.630Z,9.28
2017-10-13T00:43:34.242Z,9.28
2017-10-13T00:44:35.003Z,9.23
2017-10-13T00:45:35.643Z,9.23
2017-10-13T00:46:36.255Z,9.19
2017-10-13T00:47:36.895Z,9.18
2017-10-13T00:48:37.504Z,9.14
2017-10-13T00:49:38.306Z,9.13
2017-10-13T00:50:38.909Z,9.18
2017-10-13T00:51:39.524Z,9.18
2017-10-13T00:52:40.138Z,9.23
2017-10-13T00:53:40.746Z,9.22
2017-10-13T00:54:41.508Z,9.21
2017-10-13T00:55:42.117Z,9.22
2017-10-13T00:56:42.728Z,9.23
2017-10-13T00:57:43.341Z,9.14
2017-10-13T00:58:43.952Z,9.18
2017-10-13T00:59:44.718Z,9.11
2017-10-13T01:00:45.332Z,9.14
2017-10-13T01:01:45.946Z,9.14
2017-10-13T01:02:46.553Z,9.14
2017-10-13T01:03:47.163Z,9.23
2017-10-13T01:04:47.921Z,9.14
2017-10-13T01:05:48.532Z,9.04
2017-10-13T01:06:49.145Z,9.10
2017-10-13T01:07:49.756Z,9.14
2017-10-13T01:08:50.366Z,9.10
2017-10-13T01:09:51.124Z,9.18
2017-10-13T01:10:51.734Z,9.04
2017-10-13T01:11:52.345Z,9.13
2017-10-13T01:12:52.957Z,9.08
2017-10-13T01:13:53.599Z,9.10
2017-10-13T01:14:54.360Z,9.13
2017-10-13T01:15:54.975Z,9.06
2017-10-13T01:16:55.583Z,9.11
2017-10-13T01:17:56.193Z,9.11
2017-10-13T01:18:56.837Z,9.02
2017-10-13T01:19:57.621Z,9.11
2017-10-13T01:20:58.233Z,9.06
2017-10-13T01:21:58.842Z,9.10
2017-10-13T01:22:59.454Z,9.11
2017-10-13T01:24:00.063Z,9.10
2017-10-13T01:25:00.823Z,9.14
2017-10-13T01:26:01.434Z,9.11
2017-10-13T01:27:02.051Z,9.13
2017-10-13T01:28:02.658Z,9.14
2017-10-13T01:29:03.268Z,9.14
2017-10-13T01:30:04.027Z,9.16
2017-10-13T01:31:04.638Z,9.16
2017-10-13T01:32:05.248Z,9.18
2017-10-13T01:33:05.867Z,9.10
2017-10-13T01:34:06.472Z,9.13
2017-10-13T01:35:07.233Z,9.14
2017-10-13T01:36:07.879Z,9.18
2017-10-13T01:37:08.482Z,9.18
2017-10-13T01:38:09.092Z,9.19
2017-10-13T01:39:09.703Z,9.26
2017-10-13T01:40:10.464Z,9.23
2017-10-13T01:41:11.076Z,9.23
2017-10-13T01:42:11.688Z,9.28
2017-10-13T01:43:12.295Z,9.29
2017-10-13T01:44:12.905Z,9.28
2017-10-13T01:45:13.665Z,9.23
2017-10-13T01:46:14.276Z,9.25
2017-10-13T01:47:14.893Z,9.39
2017-10-13T01:48:15.498Z,9.23
2017-10-13T01:49:16.107Z,9.25
2017-10-13T01:50:16.867Z,9.34
2017-10-13T01:51:17.479Z,9.31
2017-10-13T01:52:18.090Z,9.34
2017-10-13T01:53:18.702Z,9.39
2017-10-13T01:54:19.310Z,9.31
2017-10-13T01:55:20.071Z,9.29
2017-10-13T01:56:20.713Z,9.32
2017-10-13T01:57:21.324Z,9.25
2017-10-13T01:58:21.933Z,9.29
2017-10-13T01:59:22.542Z,9.31
2017-10-13T02:00:23.308Z,9.21
2017-10-13T02:01:23.948Z,9.16
2017-10-13T02:02:24.560Z,9.19
2017-10-13T02:03:25.172Z,9.18
2017-10-13T02:04:25.782Z,9.21
2017-10-13T02:05:26.542Z,9.16
2017-10-13T02:06:27.187Z,9.11
2017-10-13T02:07:27.793Z,9.22
2017-10-13T02:08:28.402Z,9.21
2017-10-13T02:09:29.010Z,9.14
2017-10-13T02:10:29.771Z,9.13
2017-10-13T02:11:30.385Z,9.19
2017-10-13T02:12:31.000Z,9.06
2017-10-13T02:13:31.613Z,9.11
2017-10-13T02:14:32.224Z,9.14
2017-10-13T02:15:32.983Z,9.06
2017-10-13T02:16:33.604Z,9.13
2017-10-13T02:17:34.207Z,9.03
2017-10-13T02:18:34.853Z,9.10
2017-10-13T02:19:35.455Z,9.00
2017-10-13T02:20:36.213Z,9.06
2017-10-13T02:21:36.832Z,9.02
2017-10-13T02:22:37.438Z,9.02
2017-10-13T02:23:38.055Z,8.95
2017-10-13T02:24:38.660Z,8.89
2017-10-13T02:25:39.420Z,8.94
2017-10-13T02:26:40.030Z,8.82
2017-10-13T02:27:40.649Z,8.81
2017-10-13T02:28:41.262Z,8.71
2017-10-13T02:29:41.864Z,8.73
2017-10-13T02:30:42.624Z,8.76
2017-10-13T02:31:43.233Z,8.74
2017-10-13T02:32:43.843Z,8.71
2017-10-13T02:33:44.454Z,8.64
2017-10-13T02:34:45.063Z,8.58
2017-10-13T02:35:45.823Z,8.61
2017-10-13T02:36:46.434Z,8.63
2017-10-13T02:37:47.043Z,8.64
2017-10-13T02:38:47.651Z,8.63
2017-10-13T02:39:48.269Z,8.58
2017-10-13T02:40:49.028Z,8.56
2017-10-13T02:41:49.643Z,8.70
2017-10-13T02:42:50.247Z,8.63
2017-10-13T02:43:50.861Z,8.64
2017-10-13T02:44:51.467Z,8.58
2017-10-13T02:45:52.230Z,8.61
2017-10-13T02:46:52.837Z,8.63
2017-10-13T02:47:53.451Z,8.58
2017-10-13T02:48:54.056Z,8.63
2017-10-13T02:49:54.671Z,8.63
2017-10-13T02:50:55.427Z,8.58
2017-10-13T02:51:56.037Z,8.67
2017-10-13T02:52:56.649Z,8.61
2017-10-13T02:53:57.258Z,8.60
2017-10-13T02:54:57.872Z,8.56
2017-10-13T02:55:58.635Z,8.63
2017-10-13T02:56:59.257Z,8.56
2017-10-13T02:57:59.856Z,8.56
2017-10-13T02:59:00.469Z,8.53
2017-10-13T03:00:01.074Z,8.60
2017-10-13T03:01:01.841Z,8.61
2017-10-13T03:02:02.447Z,8.63
2017-10-13T03:03:03.056Z,8.63
2017-10-13T03:04:03.665Z,8.67
2017-10-13T03:05:04.317Z,8.70
2017-10-13T03:06:05.112Z,8.67
2017-10-13T03:07:05.714Z,8.71
2017-10-13T03:08:06.323Z,8.66
2017-10-13T03:09:06.963Z,8.70
2017-10-13T03:10:07.572Z,8.70
2017-10-13T03:11:08.366Z,8.73
2017-10-13T03:12:08.980Z,8.70
2017-10-13T03:13:09.588Z,8.73
2017-10-13T03:14:10.228Z,8.73
2017-10-13T03:15:10.839Z,8.71
2017-10-13T03:16:11.600Z,8.73
2017-10-13T03:17:12.209Z,8.73
2017-10-13T03:18:12.819Z,8.71
2017-10-13T03:19:13.428Z,8.79
2017-10-13T03:20:14.037Z,8.74
2017-10-13T03:21:14.797Z,8.70
2017-10-13T03:22:15.437Z,8.70
2017-10-13T03:23:16.051Z,8.74
2017-10-13T03:24:16.663Z,8.74
2017-10-13T03:25:17.303Z,8.78
2017-10-13T03:26:18.092Z,8.69
2017-10-13T03:27:18.736Z,8.73
2017-10-13T03:28:19.347Z,8.74
2017-10-13T03:29:19.959Z,8.84
2017-10-13T03:30:20.566Z,8.78
2017-10-13T03:31:21.325Z,8.74
2017-10-13T03:32:21.936Z,8.74
2017-10-13T03:33:22.545Z,8.81
2017-10-13T03:34:23.154Z,8.85
2017-10-13T03:35:23.763Z,8.82
2017-10-13T03:36:24.522Z,8.88
2017-10-13T03:37:25.133Z,9.00
2017-10-13T03:38:25.743Z,8.99
2017-10-13T03:39:26.353Z,8.88
2017-10-13T03:40:26.967Z,8.99
2017-10-13T03:41:27.726Z,9.00
2017-10-13T03:42:28.341Z,8.94
2017-10-13T03:43:28.947Z,9.00
2017-10-13T03:44:29.557Z,8.91
2017-10-13T03:45:30.170Z,8.99
2017-10-13T03:46:30.928Z,9.04
2017-10-13T03:47:31.538Z,8.97
2017-10-13T03:48:32.147Z,8.97
2017-10-13T03:49:32.762Z,8.97
2017-10-13T03:50:33.400Z,9.03
2017-10-13T03:51:34.211Z,9.08
2017-10-13T03:52:34.823Z,9.03
2017-10-13T03:53:35.431Z,9.11
2017-10-13T03:54:36.042Z,9.22
2017-10-13T03:55:36.657Z,9.14
2017-10-13T03:56:37.463Z,9.18
2017-10-13T03:57:38.072Z,9.14
2017-10-13T03:58:38.697Z,9.11
2017-10-13T03:59:39.294Z,9.10
2017-10-13T04:00:39.904Z,9.22
2017-10-13T04:01:40.690Z,9.13
2017-10-13T04:02:41.299Z,9.08
2017-10-13T04:03:41.911Z,9.19
2017-10-13T04:04:42.523Z,9.18
2017-10-13T04:05:43.133Z,9.13
2017-10-13T04:06:43.942Z,9.14
2017-10-13T04:07:44.559Z,9.16
2017-10-13T04:08:45.169Z,9.14
2017-10-13T04:09:45.809Z,9.10
2017-10-13T04:10:46.449Z,9.11
2017-10-13T04:11:47.259Z,9.18
2017-10-13T04:12:47.874Z,9.06
2017-10-13T04:13:48.477Z,9.08
2017-10-13T04:14:49.092Z,9.06
2017-10-13T04:15:49.702Z,9.06
2017-10-13T04:16:50.518Z,8.92
2017-10-13T04:17:51.132Z,9.02
2017-10-13T04:18:51.739Z,8.99
2017-10-13T04:19:52.351Z,8.95
2017-10-13T04:20:52.961Z,8.88
2017-10-13T04:21:53.782Z,8.87
2017-10-13T04:22:54.383Z,8.91
2017-10-13T04:23:54.991Z,8.97
2017-10-13T04:24:55.600Z,8.89
2017-10-13T04:25:56.209Z,8.89
2017-10-13T04:26:57.070Z,8.89
2017-10-13T04:27:57.679Z,8.97
2017-10-13T04:28:58.296Z,8.92
2017-10-13T04:29:58.901Z,8.89
2017-10-13T04:30:59.511Z,8.89
2017-10-13T04:32:00.426Z,8.84
2017-10-13T04:33:01.034Z,8.85
2017-10-13T04:34:01.645Z,8.81
2017-10-13T04:35:02.256Z,8.71
2017-10-13T04:36:02.871Z,8.76
2017-10-13T04:37:03.727Z,8.74
2017-10-13T04:38:04.337Z,8.74
2017-10-13T04:39:04.946Z,8.74
2017-10-13T04:40:05.555Z,8.69
2017-10-13T04:41:06.165Z,8.67
2017-10-13T04:42:07.024Z,8.70
2017-10-13T04:43:07.634Z,8.64
2017-10-13T04:44:08.252Z,8.69
2017-10-13T04:45:08.857Z,8.63
2017-10-13T04:46:09.471Z,8.63
2017-10-13T04:47:10.377Z,8.66
2017-10-13T04:48:10.998Z,8.64
2017-10-13T04:49:11.602Z,8.74
2017-10-13T04:50:12.212Z,8.76
2017-10-13T04:51:12.853Z,8.73
2017-10-13T04:52:13.714Z,8.78
2017-10-13T04:53:14.330Z,8.82
2017-10-13T04:54:14.937Z,8.73
2017-10-13T04:55:15.577Z,8.69
2017-10-13T04:56:16.188Z,8.69
2017-10-13T04:57:17.003Z,8.78
2017-10-13T04:58:17.617Z,8.82
2017-10-13T04:59:18.224Z,8.71
2017-10-13T05:00:18.834Z,8.73
2017-10-13T05:01:19.452Z,8.82
2017-10-13T05:02:20.307Z,8.76
2017-10-13T05:03:20.918Z,8.67
2017-10-13T05:04:21.532Z,8.79
2017-10-13T05:05:22.138Z,8.74
2017-10-13T05:06:22.752Z,8.81
2017-10-13T05:07:23.642Z,8.82
2017-10-13T05:08:24.250Z,8.74
2017-10-13T05:09:24.887Z,8.84
2017-10-13T05:10:25.496Z,8.84
2017-10-13T05:11:26.112Z,8.84
2017-10-13T05:12:27.018Z,8.88
2017-10-13T05:13:27.626Z,8.94
2017-10-13T05:14:28.236Z,8.85
2017-10-13T05:15:28.876Z,8.87
2017-10-13T05:16:29.491Z,8.89
2017-10-13T05:17:30.302Z,8.82
2017-10-13T05:18:30.909Z,8.88
2017-10-13T05:19:31.523Z,8.82
2017-10-13T05:20:32.130Z,8.78
2017-10-13T05:21:32.769Z,8.84
2017-10-13T05:22:33.628Z,8.78
2017-10-13T05:23:34.247Z,8.84
2017-10-13T05:24:34.881Z,8.70
2017-10-13T05:25:35.491Z,8.82
2017-10-13T05:26:36.111Z,8.69
2017-10-13T05:27:37.020Z,8.70
2017-10-13T05:28:37.627Z,8.78
2017-10-13T05:29:38.236Z,8.71
2017-10-13T05:30:38.847Z,8.76
2017-10-13T05:31:39.488Z,8.69
2017-10-13T05:32:40.349Z,8.74
2017-10-13T05:33:40.987Z,8.82
2017-10-13T05:34:41.597Z,8.84
2017-10-13T05:35:42.206Z,8.91
2017-10-13T05:36:42.815Z,8.88
2017-10-13T05:37:43.730Z,8.89
2017-10-13T05:38:44.338Z,8.94
2017-10-13T05:39:44.950Z,8.87
2017-10-13T05:40:45.588Z,8.87
2017-10-13T05:41:46.199Z,8.88
2017-10-13T05:42:47.065Z,8.94
2017-10-13T05:43:47.674Z,8.89
2017-10-13T05:44:48.290Z,8.89
2017-10-13T05:45:48.905Z,8.84
2017-10-13T05:46:49.506Z,8.87
2017-10-13T05:47:50.366Z,8.89
2017-10-13T05:48:50.976Z,8.97
2017-10-13T05:49:51.615Z,8.88
2017-10-13T05:50:52.224Z,8.91
2017-10-13T05:51:52.843Z,8.92
2017-10-13T05:52:53.697Z,8.92
2017-10-13T05:53:54.308Z,8.85
2017-10-13T05:54:54.918Z,8.88
2017-10-13T05:55:55.533Z,8.82
2017-10-13T05:56:56.146Z,8.88
2017-10-13T05:57:57.006Z,8.94
2017-10-13T05:58:57.643Z,8.94
2017-10-13T05:59:58.254Z,8.99
2017-10-13T06:00:58.865Z,8.94
2017-10-13T06:01:59.475Z,9.03
2017-10-13T06:03:00.336Z,9.06
2017-10-13T06:04:00.948Z,9.03
2017-10-13T06:05:01.561Z,9.11
2017-10-13T06:06:02.181Z,9.06
2017-10-13T06:07:02.785Z,9.13
2017-10-13T06:08:03.545Z,9.03
2017-10-13T06:09:04.158Z,9.08
2017-10-13T06:10:04.768Z,9.10
2017-10-13T06:11:05.378Z,9.03
2017-10-13T06:12:05.994Z,9.13
2017-10-13T06:13:06.903Z,9.10
2017-10-13T06:14:07.542Z,9.14
2017-10-13T06:15:08.159Z,9.14
2017-10-13T06:16:08.770Z,9.08
2017-10-13T06:17:09.411Z,9.16
2017-10-13T06:18:10.222Z,9.13
2017-10-13T06:19:10.832Z,9.11
2017-10-13T06:20:11.444Z,9.03
2017-10-13T06:21:12.052Z,9.18
2017-10-13T06:22:12.664Z,9.04
2017-10-13T06:23:13.506Z,9.06
2017-10-13T06:24:14.115Z,9.06
2017-10-13T06:25:14.732Z,9.02
2017-10-13T06:26:15.346Z,8.97
2017-10-13T06:27:15.985Z,8.95
2017-10-13T06:28:16.932Z,8.99
2017-10-13T06:29:17.545Z,8.99
2017-10-13T06:30:18.159Z,8.97
2017-10-13T06:31:18.766Z,8.92
2017-10-13T06:32:19.382Z,8.97
2017-10-13T06:33:20.273Z,8.92
2017-10-13T06:34:20.882Z,8.97
2017-10-13T06:35:21.493Z,9.03
2017-10-13T06:36:22.100Z,8.99
2017-10-13T06:37:22.718Z,9.03
2017-10-13T06:38:23.584Z,8.95
2017-10-13T06:39:24.193Z,9.08
2017-10-13T06:40:24.801Z,9.08
2017-10-13T06:41:25.443Z,9.08
2017-10-13T06:42:26.064Z,9.06
2017-10-13T06:43:26.967Z,9.11
2017-10-13T06:44:27.581Z,9.08
2017-10-13T06:45:28.222Z,9.04
2017-10-13T06:46:28.838Z,9.08
2017-10-13T06:47:29.446Z,9.10
2017-10-13T06:48:30.361Z,9.10
2017-10-13T06:49:30.968Z,9.03
2017-10-13T06:50:31.609Z,9.06
2017-10-13T06:51:32.249Z,9.04
2017-10-13T06:52:32.860Z,9.08
2017-10-13T06:53:33.721Z,9.18
2017-10-13T06:54:34.332Z,9.14
2017-10-13T06:55:34.942Z,9.18
2017-10-13T06:56:35.553Z,9.22
2017-10-13T06:57:36.172Z,9.25
2017-10-13T06:58:37.085Z,9.23
2017-10-13T06:59:37.697Z,9.19
2017-10-13T07:00:38.312Z,9.25
2017-10-13T07:01:38.919Z,9.21
2017-10-13T07:02:39.528Z,9.21
2017-10-13T07:03:40.394Z,9.19
2017-10-13T07:04:40.999Z,9.26
2017-10-13T07:05:41.609Z,9.28
2017-10-13T07:06:42.250Z,9.28
2017-10-13T07:07:42.861Z,9.29
2017-10-13T07:08:43.770Z,9.31
2017-10-13T07:09:44.386Z,9.32
2017-10-13T07:10:44.996Z,9.29
2017-10-13T07:11:45.608Z,9.36
2017-10-13T07:12:46.221Z,9.40
2017-10-13T07:13:47.163Z,9.41
2017-10-13T07:14:47.804Z,9.44
2017-10-13T07:15:48.422Z,9.36
2017-10-13T07:16:49.069Z,9.40
2017-10-13T07:17:49.675Z,9.32
2017-10-13T07:18:50.537Z,9.36
2017-10-13T07:19:51.146Z,9.46
2017-10-13T07:20:51.793Z,9.37
2017-10-13T07:21:52.400Z,9.41
2017-10-13T07:22:53.010Z,9.41
2017-10-13T07:23:53.921Z,9.50
2017-10-13T07:24:54.539Z,9.44
2017-10-13T07:25:55.146Z,9.62
2017-10-13T07:26:55.763Z,9.61
2017-10-13T07:27:56.380Z,9.74
2017-10-13T07:28:57.275Z,9.72
2017-10-13T07:29:57.894Z,9.84
2017-10-13T07:30:58.505Z,9.91
2017-10-13T07:31:59.124Z,10.04
2017-10-13T07:32:59.740Z,10.22
2017-10-13T07:34:00.599Z,10.42
2017-10-13T07:35:01.215Z,10.38
2017-10-13T07:36:01.829Z,10.59
2017-10-13T07:37:02.444Z,10.68
2017-10-13T07:38:03.060Z,10.81
2017-10-13T07:39:03.974Z,10.84
2017-10-13T07:40:04.588Z,10.92
2017-10-13T07:41:05.203Z,11.05
2017-10-13T07:42:05.823Z,11.18
2017-10-13T07:43:06.435Z,11.30
2017-10-13T07:44:07.299Z,11.35
2017-10-13T07:45:07.919Z,11.45
2017-10-13T07:46:08.530Z,11.52
2017-10-13T07:47:09.146Z,11.57
2017-10-13T07:48:09.762Z,11.57
2017-10-13T07:49:10.632Z,11.65
2017-10-13T07:50:11.247Z,11.65
2017-10-13T07:51:11.865Z,11.77
2017-10-13T07:52:12.479Z,11.88
2017-10-13T07:53:13.095Z,11.88
2017-10-13T07:54:13.964Z,11.97
2017-10-13T07:55:14.611Z,12.09
2017-10-13T07:56:15.224Z,12.18
2017-10-13T07:57:15.843Z,12.25
2017-10-13T07:58:16.486Z,12.27
2017-10-13T07:59:17.385Z,12.24
2017-10-13T08:00:17.998Z,12.36
2017-10-13T08:01:18.641Z,12.36
2017-10-13T08:02:19.260Z,12.28
2017-10-13T08:03:19.878Z,12.28
2017-10-13T08:04:20.738Z,12.35
2017-10-13T08:05:21.367Z,12.36
2017-10-13T08:06:22.010Z,12.27
2017-10-13T08:07:22.625Z,12.27
2017-10-13T08:08:23.245Z,12.29
2017-10-13T08:09:24.107Z,12.42
2017-10-13T08:10:24.722Z,12.42
2017-10-13T08:11:25.372Z,12.42
2017-10-13T08:12:25.988Z,12.61
2017-10-13T08:13:26.601Z,12.55
2017-10-13T08:14:27.547Z,12.60
2017-10-13T08:15:28.163Z,12.72
2017-10-13T08:16:28.779Z,12.73
2017-10-13T08:17:29.394Z,12.86
2017-10-13T08:18:30.011Z,12.79
2017-10-13T08:19:30.913Z,12.78
2017-10-13T08:20:31.525Z,12.82
2017-10-13T08:21:32.140Z,12.85
2017-10-13T08:22:32.766Z,12.90
2017-10-13T08:23:33.373Z,12.97
2017-10-13T08:24:34.287Z,12.97
2017-10-13T08:25:34.904Z,13.08
2017-10-13T08:26:35.549Z,13.01
2017-10-13T08:27:36.164Z,13.00
2017-10-13T08:28:36.780Z,12.93
2017-10-13T08:29:37.645Z,12.98
2017-10-13T08:30:38.275Z,13.01
2017-10-13T08:31:38.880Z,13.03
2017-10-13T08:32:39.497Z,13.16
2017-10-13T08:33:40.111Z,13.19
2017-10-13T08:34:41.012Z,13.19
2017-10-13T08:35:41.630Z,13.30
2017-10-13T08:36:42.243Z,13.27
2017-10-13T08:37:42.870Z,13.35
2017-10-13T08:38:43.506Z,13.35
2017-10-13T08:39:44.374Z,13.37
2017-10-13T08:40:44.998Z,13.33
2017-10-13T08:41:45.612Z,13.47
2017-10-13T08:42:46.259Z,13.49
2017-10-13T08:43:46.873Z,13.50
2017-10-13T08:44:47.788Z,13.57
2017-10-13T08:45:48.402Z,13.65
2017-10-13T08:46:49.021Z,13.70
2017-10-13T08:47:49.637Z,13.68
2017-10-13T08:48:50.253Z,13.68
2017-10-13T08:49:51.117Z,13.81
2017-10-13T08:50:51.732Z,13.87
2017-10-13T08:51:52.348Z,13.86
2017-10-13T08:52:52.994Z,13.81
2017-10-13T08:53:53.615Z,13.87
2017-10-13T08:54:54.531Z,13.86
2017-10-13T08:55:55.151Z,13.87
2017-10-13T08:56:55.765Z,14.08
2017-10-13T08:57:56.381Z,14.11
2017-10-13T08:58:57.000Z,14.30
2017-10-13T08:59:57.867Z,14.22
2017-10-13T09:00:58.485Z,14.23
2017-10-13T09:01:59.099Z,14.33
2017-10-13T09:02:59.745Z,14.28
2017-10-13T09:04:00.358Z,14.30
2017-10-13T09:05:01.275Z,14.36
2017-10-13T09:06:01.892Z,14.50
2017-10-13T09:07:02.508Z,14.48
2017-10-13T09:08:03.159Z,14.59
2017-10-13T09:09:03.775Z,14.55
2017-10-13T09:10:04.691Z,14.47
2017-10-13T09:11:05.347Z,14.41
2017-10-13T09:12:05.992Z,14.51
2017-10-13T09:13:06.608Z,14.55
2017-10-13T09:14:07.257Z,14.60
2017-10-13T09:15:08.129Z,14.72
2017-10-13T09:16:08.740Z,14.81
2017-10-13T09:17:09.356Z,14.79
2017-10-13T09:18:09.971Z,14.89
2017-10-13T09:19:10.592Z,15.10
2017-10-13T09:20:11.507Z,15.04
2017-10-13T09:21:12.129Z,15.14
2017-10-13T09:22:12.743Z,15.18
2017-10-13T09:23:13.359Z,15.21
2017-10-13T09:24:13.975Z,15.31
2017-10-13T09:25:14.893Z,15.44
2017-10-13T09:26:15.541Z,15.57
2017-10-13T09:27:16.160Z,15.70
2017-10-13T09:28:16.780Z,15.80
2017-10-13T09:29:17.428Z,16.01
2017-10-13T09:30:18.294Z,15.88
2017-10-13T09:31:18.912Z,15.91
2017-10-13T09:32:19.528Z,15.86
2017-10-13T09:33:20.177Z,15.92
2017-10-13T09:34:20.791Z,15.90
2017-10-13T09:35:21.658Z,15.94
2017-10-13T09:36:22.314Z,16.05
2017-10-13T09:37:22.931Z,16.21
2017-10-13T09:38:23.546Z,16.28
2017-10-13T09:39:24.164Z,16.36
2017-10-13T09:40:25.032Z,16.33
2017-10-13T09:41:25.686Z,16.35
2017-10-13T09:42:26.302Z,16.41
2017-10-13T09:43:26.924Z,16.39
2017-10-13T09:44:27.539Z,16.47
2017-10-13T09:45:28.462Z,16.58
2017-10-13T09:46:29.082Z,16.64
2017-10-13T09:47:29.729Z,16.69
2017-10-13T09:48:30.347Z,16.79
2017-10-13T09:49:30.965Z,16.94
2017-10-13T09:50:31.832Z,16.89
2017-10-13T09:51:32.450Z,16.87
2017-10-13T09:52:33.070Z,16.86
2017-10-13T09:53:33.691Z,16.81
2017-10-13T09:54:34.311Z,16.76
2017-10-13T09:55:35.178Z,16.75
2017-10-13T09:56:35.825Z,16.68
2017-10-13T09:57:36.454Z,16.79
2017-10-13T09:58:37.104Z,16.68
2017-10-13T09:59:37.723Z,16.65
2017-10-13T10:00:38.601Z,16.43
2017-10-13T10:01:39.219Z,16.31
2017-10-13T10:02:39.833Z,16.39
2017-10-13T10:03:40.452Z,16.41
2017-10-13T10:04:41.069Z,16.51
2017-10-13T10:05:41.944Z,16.42
2017-10-13T10:06:42.556Z,16.54
2017-10-13T10:07:43.175Z,16.60
2017-10-13T10:08:43.799Z,16.79
2017-10-13T10:09:44.422Z,16.90
2017-10-13T10:10:45.337Z,16.93
2017-10-13T10:11:45.960Z,16.90
2017-10-13T10:12:46.584Z,16.91
2017-10-13T10:13:47.200Z,17.04
2017-10-13T10:14:47.823Z,17.02
2017-10-13T10:15:48.738Z,17.27
2017-10-13T10:16:49.359Z,17.44
2017-10-13T10:17:49.979Z,17.38
2017-10-13T10:18:50.606Z,17.41
2017-10-13T10:19:51.220Z,17.23
2017-10-13T10:20:52.140Z,17.22
2017-10-13T10:21:52.763Z,17.26
2017-10-13T10:22:53.380Z,17.30
2017-10-13T10:23:54.006Z,17.38
2017-10-13T10:24:54.623Z,17.44
2017-10-13T10:25:55.494Z,17.60
2017-10-13T10:26:56.120Z,17.83
2017-10-13T10:27:56.743Z,17.97
2017-10-13T10:28:57.365Z,18.15
2017-10-13T10:29:57.981Z,18.29
2017-10-13T10:30:58.906Z,18.41
2017-10-13T10:31:59.525Z,18.45
2017-10-13T10:33:00.151Z,18.40
2017-10-13T10:34:00.768Z,18.50
2017-10-13T10:35:01.389Z,18.37
2017-10-13T10:36:02.315Z,18.37
2017-10-13T10:37:02.967Z,18.26
2017-10-13T10:38:03.593Z,18.26
2017-10-13T10:39:04.215Z,18.37
2017-10-13T10:40:04.843Z,18.38
2017-10-13T10:41:05.708Z,18.52
2017-10-13T10:42:06.328Z,18.45
2017-10-13T10:43:06.950Z,18.43
2017-10-13T10:44:07.568Z,18.45
2017-10-13T10:45:08.194Z,18.35
2017-10-13T10:46:09.114Z,18.34
2017-10-13T10:47:09.734Z,18.20
2017-10-13T10:48:10.356Z,18.28
2017-10-13T10:49:10.982Z,18.37
2017-10-13T10:50:11.601Z,18.20
2017-10-13T10:51:12.524Z,18.29
2017-10-13T10:52:13.144Z,18.34
2017-10-13T10:53:13.770Z,18.45
2017-10-13T10:54:14.388Z,18.37
2017-10-13T10:55:15.010Z,18.35
2017-10-13T10:56:15.888Z,18.47
2017-10-13T10:57:16.514Z,18.52
2017-10-13T10:58:17.133Z,18.55
2017-10-13T10:59:17.787Z,18.60
2017-10-13T11:00:18.409Z,18.71
2017-10-13T11:01:19.276Z,18.83
2017-10-13T11:02:19.898Z,18.84
2017-10-13T11:03:20.518Z,18.92
2017-10-13T11:04:21.168Z,19.02
2017-10-13T11:05:21.820Z,19.16
2017-10-13T11:06:22.747Z,19.24
2017-10-13T11:07:23.398Z,19.37
2017-10-13T11:08:24.020Z,19.40
2017-10-13T11:09:24.638Z,19.37
2017-10-13T11:10:25.268Z,19.33
2017-10-13T11:11:26.135Z,19.34
2017-10-13T11:12:26.760Z,19.37
2017-10-13T11:13:27.378Z,19.26
2017-10-13T11:14:28.002Z,19.36
2017-10-13T11:15:28.624Z,19.21
2017-10-13T11:16:29.497Z,19.29
2017-10-13T11:17:30.119Z,19.34
2017-10-13T11:18:30.740Z,19.49
2017-10-13T11:19:31.362Z,19.64
2017-10-13T11:20:32.014Z,19.86
2017-10-13T11:21:32.936Z,19.85
2017-10-13T11:22:33.566Z,19.91
2017-10-13T11:23:34.193Z,19.92
2017-10-13T11:24:34.838Z,19.89
2017-10-13T11:25:35.461Z,19.82
2017-10-13T11:26:36.413Z,19.58
2017-10-13T11:27:37.005Z,19.30
2017-10-13T11:28:37.629Z,19.15
2017-10-13T11:29:38.250Z,19.31
2017-10-13T11:30:38.873Z,19.27
2017-10-13T11:31:39.744Z,19.14
2017-10-13T11:32:40.366Z,19.14
2017-10-13T11:33:40.995Z,19.15
2017-10-13T11:34:41.616Z,19.29
2017-10-13T11:35:42.236Z,19.49
2017-10-13T11:36:43.008Z,19.55
2017-10-13T11:37:43.659Z,19.86
2017-10-13T11:38:44.281Z,19.89
2017-10-13T11:39:44.933Z,20.00
2017-10-13T11:40:45.555Z,20.07
2017-10-13T11:41:46.480Z,19.99
2017-10-13T11:42:47.109Z,19.91
2017-10-13T11:43:47.731Z,19.81
2017-10-13T11:44:48.351Z,19.86
2017-10-13T11:45:48.971Z,19.86
2017-10-13T11:46:49.743Z,19.92
2017-10-13T11:47:50.374Z,19.89
2017-10-13T11:48:50.987Z,19.82
2017-10-13T11:49:51.614Z,19.88
2017-10-13T11:50:52.236Z,19.79
2017-10-13T11:51:53.008Z,19.79
2017-10-13T11:52:53.631Z,19.85
2017-10-13T11:53:54.258Z,19.84
2017-10-13T11:54:54.883Z,19.84
2017-10-13T11:55:55.510Z,19.56
2017-10-13T11:56:56.285Z,19.49
2017-10-13T11:57:56.914Z,19.36
2017-10-13T11:58:57.533Z,19.30
2017-10-13T11:59:58.167Z,19.30
2017-10-13T12:00:58.778Z,19.26
2017-10-13T12:01:59.550Z,19.33
2017-10-13T12:03:00.172Z,19.48
2017-10-13T12:04:00.794Z,19.64
2017-10-13T12:05:01.417Z,19.82
2017-10-13T12:06:02.042Z,19.82
2017-10-13T12:07:02.819Z,19.89
2017-10-13T12:08:03.444Z,19.91
2017-10-13T12:09:04.064Z,19.96
2017-10-13T12:10:04.686Z,20.07
2017-10-13T12:11:05.308Z,20.07
2017-10-13T12:12:06.086Z,20.06
2017-10-13T12:13:06.745Z,19.92
2017-10-13T12:14:07.367Z,19.86
2017-10-13T12:15:07.990Z,19.84
2017-10-13T12:16:08.610Z,19.54
2017-10-13T12:17:09.383Z,19.58
2017-10-13T12:18:10.007Z,19.56
2017-10-13T12:19:10.629Z,19.66
2017-10-13T12:20:11.250Z,19.73
2017-10-13T12:21:11.878Z,19.63
2017-10-13T12:22:12.646Z,19.39
2017-10-13T12:23:13.273Z,19.34
2017-10-13T12:24:13.895Z,19.49
2017-10-13T12:25:14.522Z,19.67
2017-10-13T12:26:15.142Z,19.84
2017-10-13T12:27:15.942Z,20.00
2017-10-13T12:28:16.566Z,20.11
2017-10-13T12:29:17.192Z,20.10
2017-10-13T12:30:17.811Z,20.13
2017-10-13T12:31:18.434Z,20.24
2017-10-13T12:32:19.203Z,20.26
2017-10-13T12:33:19.832Z,20.26
2017-10-13T12:34:20.451Z,20.41
2017-10-13T12:35:21.109Z,20.55
2017-10-13T12:36:21.730Z,20.58
2017-10-13T12:37:22.512Z,20.63
2017-10-13T12:38:23.137Z,20.85
2017-10-13T12:39:23.758Z,20.82
2017-10-13T12:40:24.380Z,20.70
2017-10-13T12:41:25.009Z,20.77
2017-10-13T12:42:25.781Z,20.72
2017-10-13T12:43:26.403Z,20.74
2017-10-13T12:44:27.026Z,20.74
2017-10-13T12:45:27.651Z,20.80
2017-10-13T12:46:28.288Z,20.92
2017-10-13T12:47:29.051Z,21.03
2017-10-13T12:48:29.667Z,21.14
2017-10-13T12:49:30.296Z,21.42
2017-10-13T12:50:30.915Z,21.51
2017-10-13T12:51:31.541Z,21.46
2017-10-13T12:52:32.314Z,21.36
2017-10-13T12:53:32.937Z,21.51
2017-10-13T12:54:33.562Z,21.72
2017-10-13T12:55:34.185Z,21.77
2017-10-13T12:56:34.809Z,22.07
2017-10-13T12:57:35.583Z,22.15
2017-10-13T12:58:36.204Z,22.10
2017-10-13T12:59:36.827Z,22.02
2017-10-13T13:00:37.450Z,21.77
2017-10-13T13:01:38.079Z,21.89
2017-10-13T13:02:38.853Z,22.04
2017-10-13T13:03:39.474Z,21.77
2017-10-13T13:04:40.100Z,21.69
2017-10-13T13:05:40.722Z,21.69
2017-10-13T13:06:41.347Z,21.72
2017-10-13T13:07:42.120Z,21.89
2017-10-13T13:08:42.743Z,22.06
2017-10-13T13:09:43.373Z,22.25
2017-10-13T13:10:43.995Z,22.51
2017-10-13T13:11:44.621Z,22.75
2017-10-13T13:12:45.394Z,22.96
2017-10-13T13:13:46.020Z,22.80
2017-10-13T13:14:46.644Z,22.84
2017-10-13T13:15:47.268Z,22.83